Servet Ana — TCMF7 — position and weather

sailwx.info

Track history (hours):
 
Tides and Currents Weather Stations Pressure Air Temp Water Temp Dewpoint Dewpoint Depression Visibility Wind Speed Wind Dir Waves Ship Positions

Servet Ana

Last reported at 2015-Jun-22 19:33 UTC. Time now 2015-Jun-30 12:43 UTC.
Position N 37°26' W 028°09'.

; draft 9.9 m.

Type: Cargo ship. MMSI: 271042643.

Date/timePositionNaut miles runAvg speedWind from/ knotsBaromVisibWave heightAir tempDewpointWater temp
2015-Jun-22 19:33N 37°26' W 028°09'1212.2
2015-Jun-22 18:33N 37°26' W 027°53'1211.8
2015-Jun-22 17:33N 37°26' W 027°39'1511.6
2015-Jun-22 16:18N 37°26' W 027°20'911.5
2015-Jun-22 15:33N 37°26' W 027°09'1111.5
2015-Jun-22 14:33N 37°26' W 026°55'1111.4
2015-Jun-22 13:33N 37°26' W 026°41'1212.4
2015-Jun-22 12:34N 37°26' W 026°25'1212.1
2015-Jun-22 11:33N 37°25' W 026°10'1212.4
2015-Jun-22 10:33N 37°25' W 025°54'1212.3
2015-Jun-22 09:34N 37°25' W 025°39'1312.9
2015-Jun-22 08:33N 37°25' W 025°23'1312.7
2015-Jun-22 07:33N 37°25' W 025°07'1212.5
2015-Jun-22 06:34N 37°25' W 024°51'1212.4
2015-Jun-22 05:33N 37°25' W 024°35'1212.4
2015-Jun-22 04:33N 37°25' W 024°20'1312.7
2015-Jun-22 03:33N 37°24' W 024°03'1312.9
2015-Jun-22 02:33N 37°24' W 023°47'35612.5
2015-Jun-20 22:09N 37°02' W 016°22'2012.4
2015-Jun-20 20:33N 36°60' W 015°57'1212.2
2015-Jun-20 19:33N 36°58' W 015°42'1212.2
2015-Jun-20 18:33N 36°57' W 015°26'1312.5
2015-Jun-20 17:32N 36°56' W 015°11'1312.4
2015-Jun-20 16:28N 36°54' W 014°54'1112.6
2015-Jun-20 15:34N 36°53' W 014°40'1412.3
2015-Jun-20 14:28N 36°51' W 014°23'1212.6
2015-Jun-20 13:33N 36°50' W 014°09'1212.4
2015-Jun-20 12:33N 36°48' W 013°54'1212.4
2015-Jun-20 11:33N 36°47' W 013°38'1212.2
2015-Jun-20 10:33N 36°45' W 013°23'1212.4
2015-Jun-20 09:33N 36°44' W 013°08'1212.3
2015-Jun-20 08:33N 36°43' W 012°53'1212.2
2015-Jun-20 07:33N 36°41' W 012°37'1212.0
2015-Jun-20 06:33N 36°40' W 012°23'1212.3
2015-Jun-20 05:33N 36°38' W 012°07'1212.2
2015-Jun-20 04:33N 36°37' W 011°52'1212.4
2015-Jun-20 03:33N 36°36' W 011°37'1212.4
2015-Jun-20 02:33N 36°34' W 011°22'1312.8
2015-Jun-20 01:33N 36°33' W 011°06'1212.3
2015-Jun-20 00:33N 36°31' W 010°51'1212.2
2015-Jun-19 23:33N 36°30' W 010°35'1212.4
2015-Jun-19 22:33N 36°28' W 010°20'1212.4
2015-Jun-19 21:33N 36°27' W 010°05'1212.2
2015-Jun-19 20:33N 36°25' W 009°50'1212.2
2015-Jun-19 19:33N 36°23' W 009°35'1212.1
2015-Jun-19 18:33N 36°20' W 009°20'1212.2
2015-Jun-19 17:33N 36°19' W 009°05'1212.4
2015-Jun-19 16:33N 36°17' W 008°50'1212.5
2015-Jun-19 15:33N 36°14' W 008°35'1212.3
2015-Jun-19 14:33N 36°12' W 008°20'1312.7
2015-Jun-19 13:33N 36°10' W 008°04'1212.4
2015-Jun-19 12:33N 36°08' W 007°49'1212.3
2015-Jun-19 11:33N 36°04' W 007°35'5212.4
2015-Jun-19 07:21N 35°58' W 006°30'4612.0
2015-Jun-19 03:33N 35°58' W 005°34'1010.5
2015-Jun-19 02:33N 36°04' W 005°23'4 4.0
2015-Jun-19 01:33N 36°08' W 005°22'0 0.0
2015-Jun-19 00:33N 36°08' W 005°22'0 0.0
2015-Jun-18 23:33N 36°08' W 005°22'0 0.2
2015-Jun-18 22:30N 36°07' W 005°22'0 0.0
2015-Jun-18 21:33N 36°07' W 005°22'0 0.0
2015-Jun-18 20:33N 36°08' W 005°22'0 0.1
2015-Jun-18 19:30N 36°08' W 005°22'0 0.1
2015-Jun-18 18:27N 36°08' W 005°22'0 0.1
2015-Jun-18 17:24N 36°08' W 005°22'0 0.2
2015-Jun-18 16:34N 36°08' W 005°22'6 5.8
2015-Jun-18 15:33N 36°06' W 005°15'2 1.8
2015-Jun-18 14:32N 36°05' W 005°17'3 3.0
2015-Jun-18 13:33N 36°05' W 005°14'13512.2
2015-Jun-18 02:29N 35°58' W 002°27'1513.5
2015-Jun-18 01:24N 35°58' W 002°09'5013.0
2015-Jun-17 21:33N 35°57' W 001°08'1212.1
2015-Jun-17 20:33N 35°56' W 000°52'1212.2
2015-Jun-17 19:33N 35°56' W 000°37'1212.5
2015-Jun-17 18:33N 35°56' W 000°22'  
2015-Jun-13 05:15N 36°27' E 000°29'912.1
2015-Jun-13 04:29N 36°33' E 000°39'10012.6
2015-Jun-12 20:33N 37°02' E 002°38'  
Track history (hours):
 
Tides and Currents Weather Stations Pressure Air Temp Water Temp Dewpoint Dewpoint Depression Visibility Wind Speed Wind Dir Waves Ship Positions

Servet Ana

Last reported at 2015-Jun-22 19:33 UTC. Time now 2015-Jun-30 12:43 UTC.
Position N 37°26' W 028°09'.

; draft 9.9 m.

Type: Cargo ship. MMSI: 271042643.

Date/timePositionNaut miles runAvg speedWind from/ knotsBaromVisibWave heightAir tempDewpointWater temp
2015-Jun-22 19:33N 37°26' W 028°09'1212.2
2015-Jun-22 18:33N 37°26' W 027°53'1211.8
2015-Jun-22 17:33N 37°26' W 027°39'1511.6
2015-Jun-22 16:18N 37°26' W 027°20'911.5
2015-Jun-22 15:33N 37°26' W 027°09'1111.5
2015-Jun-22 14:33N 37°26' W 026°55'1111.4
2015-Jun-22 13:33N 37°26' W 026°41'1212.4
2015-Jun-22 12:34N 37°26' W 026°25'1212.1
2015-Jun-22 11:33N 37°25' W 026°10'1212.4
2015-Jun-22 10:33N 37°25' W 025°54'1212.3
2015-Jun-22 09:34N 37°25' W 025°39'1312.9
2015-Jun-22 08:33N 37°25' W 025°23'1312.7
2015-Jun-22 07:33N 37°25' W 025°07'1212.5
2015-Jun-22 06:34N 37°25' W 024°51'1212.4
2015-Jun-22 05:33N 37°25' W 024°35'1212.4
2015-Jun-22 04:33N 37°25' W 024°20'1312.7
2015-Jun-22 03:33N 37°24' W 024°03'1312.9
2015-Jun-22 02:33N 37°24' W 023°47'35612.5
2015-Jun-20 22:09N 37°02' W 016°22'2012.4
2015-Jun-20 20:33N 36°60' W 015°57'1212.2
2015-Jun-20 19:33N 36°58' W 015°42'1212.2
2015-Jun-20 18:33N 36°57' W 015°26'1312.5
2015-Jun-20 17:32N 36°56' W 015°11'1312.4
2015-Jun-20 16:28N 36°54' W 014°54'1112.6
2015-Jun-20 15:34N 36°53' W 014°40'1412.3
2015-Jun-20 14:28N 36°51' W 014°23'1212.6
2015-Jun-20 13:33N 36°50' W 014°09'1212.4
2015-Jun-20 12:33N 36°48' W 013°54'1212.4
2015-Jun-20 11:33N 36°47' W 013°38'1212.2
2015-Jun-20 10:33N 36°45' W 013°23'1212.4
2015-Jun-20 09:33N 36°44' W 013°08'1212.3
2015-Jun-20 08:33N 36°43' W 012°53'1212.2
2015-Jun-20 07:33N 36°41' W 012°37'1212.0
2015-Jun-20 06:33N 36°40' W 012°23'1212.3
2015-Jun-20 05:33N 36°38' W 012°07'1212.2
2015-Jun-20 04:33N 36°37' W 011°52'1212.4
2015-Jun-20 03:33N 36°36' W 011°37'1212.4
2015-Jun-20 02:33N 36°34' W 011°22'1312.8
2015-Jun-20 01:33N 36°33' W 011°06'1212.3
2015-Jun-20 00:33N 36°31' W 010°51'1212.2
2015-Jun-19 23:33N 36°30' W 010°35'1212.4
2015-Jun-19 22:33N 36°28' W 010°20'1212.4
2015-Jun-19 21:33N 36°27' W 010°05'1212.2
2015-Jun-19 20:33N 36°25' W 009°50'1212.2
2015-Jun-19 19:33N 36°23' W 009°35'1212.1
2015-Jun-19 18:33N 36°20' W 009°20'1212.2
2015-Jun-19 17:33N 36°19' W 009°05'1212.4
2015-Jun-19 16:33N 36°17' W 008°50'1212.5
2015-Jun-19 15:33N 36°14' W 008°35'1212.3
2015-Jun-19 14:33N 36°12' W 008°20'1312.7
2015-Jun-19 13:33N 36°10' W 008°04'1212.4
2015-Jun-19 12:33N 36°08' W 007°49'1212.3
2015-Jun-19 11:33N 36°04' W 007°35'5212.4
2015-Jun-19 07:21N 35°58' W 006°30'4612.0
2015-Jun-19 03:33N 35°58' W 005°34'1010.5
2015-Jun-19 02:33N 36°04' W 005°23'4 4.0
2015-Jun-19 01:33N 36°08' W 005°22'0 0.0
2015-Jun-19 00:33N 36°08' W 005°22'0 0.0
2015-Jun-18 23:33N 36°08' W 005°22'0 0.2
2015-Jun-18 22:30N 36°07' W 005°22'0 0.0
2015-Jun-18 21:33N 36°07' W 005°22'0 0.0
2015-Jun-18 20:33N 36°08' W 005°22'0 0.1
2015-Jun-18 19:30N 36°08' W 005°22'0 0.1
2015-Jun-18 18:27N 36°08' W 005°22'0 0.1
2015-Jun-18 17:24N 36°08' W 005°22'0 0.2
2015-Jun-18 16:34N 36°08' W 005°22'6 5.8
2015-Jun-18 15:33N 36°06' W 005°15'2 1.8
2015-Jun-18 14:32N 36°05' W 005°17'3 3.0
2015-Jun-18 13:33N 36°05' W 005°14'13512.2
2015-Jun-18 02:29N 35°58' W 002°27'1513.5
2015-Jun-18 01:24N 35°58' W 002°09'5013.0
2015-Jun-17 21:33N 35°57' W 001°08'1212.1
2015-Jun-17 20:33N 35°56' W 000°52'1212.2
2015-Jun-17 19:33N 35°56' W 000°37'1212.5
2015-Jun-17 18:33N 35°56' W 000°22'  
2015-Jun-13 05:15N 36°27' E 000°29'912.1
2015-Jun-13 04:29N 36°33' E 000°39'10012.6
2015-Jun-12 20:33N 37°02' E 002°38'  

Dump ship's entire track history